Terminal Aerodrome Forecast
Issued by NWS

Home | Current Version | Previous Version | Text Only | Print | Product List | Glossary On
Versions: 1 2 3 4 5 6 7 8 9 10 11 12 13 14 15 16 17 18 19 20 21 22 23 24 25
000
FTUS43 KMQT 201100
TAFSAW
TAF
KSAW 201135Z 2012/2112 34005KT 2SM BR OVC003
     FM201500 34006KT P6SM OVC008
     FM201900 01007KT P6SM OVC010
     FM210100 VRB03KT 5SM BR OVC007
      AMD LTD TO CLD VIS AND WIND 2102/2110=

USA.gov is the U.S. government's official web portal to all federal, state and local government web resources and services.